createdAt,value
2019-03-03T00:05:28.299Z,6.05
2019-03-03T00:08:17.303Z,6.97
2019-03-03T00:11:05.976Z,7.50
2019-03-03T00:14:06.666Z,6.50
2019-03-03T00:16:45.142Z,7.47
2019-03-03T00:19:34.437Z,6.75
2019-03-03T00:22:23.142Z,6.95
2019-03-03T00:25:11.920Z,8.38
2019-03-03T00:31:09.994Z,7.08
2019-03-03T00:33:51.235Z,8.40
2019-03-03T00:36:51.527Z,7.78
2019-03-03T00:39:53.197Z,7.00
2019-03-03T00:42:54.411Z,8.65
2019-03-03T00:45:45.068Z,6.97
2019-03-03T00:48:45.495Z,10.00
2019-03-03T00:51:45.976Z,9.33
2019-03-03T00:57:28.899Z,10.80
2019-03-03T01:00:30.371Z,11.10
2019-03-03T01:03:06.773Z,10.75
2019-03-03T01:06:07.256Z,11.57
2019-03-03T01:09:13.248Z,11.95
2019-03-03T01:12:19.757Z,13.00
2019-03-03T01:15:19.821Z,12.90
2019-03-03T01:18:19.832Z,11.05
2019-03-03T01:21:23.313Z,12.00
2019-03-03T01:24:23.531Z,10.75
2019-03-03T01:27:05.148Z,11.18
2019-03-03T01:29:46.664Z,10.65
2019-03-03T01:32:28.199Z,9.00
2019-03-03T01:35:09.556Z,8.63
2019-03-03T01:37:50.449Z,9.53
2019-03-03T01:40:31.469Z,7.78
2019-03-03T01:43:12.656Z,7.75
2019-03-03T01:45:54.273Z,6.75
2019-03-03T01:48:35.580Z,7.03
2019-03-03T01:51:16.455Z,7.40
2019-03-03T01:53:58.019Z,6.80
2019-03-03T01:56:39.301Z,7.00
2019-03-03T01:59:20.453Z,6.53
2019-03-03T02:02:02.053Z,5.53
2019-03-03T02:04:43.981Z,6.45
2019-03-03T02:07:25.263Z,5.92
2019-03-03T02:10:06.842Z,6.40
2019-03-03T02:12:48.448Z,4.70
2019-03-03T02:15:29.716Z,5.00
2019-03-03T02:18:11.073Z,4.65
2019-03-03T02:20:52.525Z,5.12
2019-03-03T02:23:34.140Z,5.12
2019-03-03T02:26:13.911Z,4.40
2019-03-03T02:31:58.135Z,3.30
2019-03-03T02:34:39.213Z,3.58
2019-03-03T02:37:20.833Z,4.03
2019-03-03T02:40:02.545Z,3.40
2019-03-03T02:42:44.141Z,4.47
2019-03-03T02:45:25.514Z,3.22
2019-03-03T02:48:06.693Z,3.95
2019-03-03T02:50:48.314Z,3.75
2019-03-03T02:53:29.784Z,3.70
2019-03-03T02:56:11.141Z,3.20
2019-03-03T02:58:52.771Z,3.40
2019-03-03T03:04:42.074Z,3.55
2019-03-03T03:07:41.709Z,3.08
2019-03-03T03:10:41.850Z,3.10
2019-03-03T03:13:42.160Z,3.27
2019-03-03T03:16:42.679Z,2.72
2019-03-03T03:19:42.362Z,3.10
2019-03-03T03:22:42.741Z,3.30
2019-03-03T03:25:57.621Z,3.83
2019-03-03T03:28:50.797Z,4.28
2019-03-03T03:31:51.256Z,3.02
2019-03-03T03:34:39.628Z,3.65
2019-03-03T03:37:39.782Z,3.50
2019-03-03T03:40:54.952Z,2.85
2019-03-03T03:43:35.777Z,3.25
2019-03-03T03:46:38.520Z,3.25
2019-03-03T03:49:38.700Z,3.98
2019-03-03T03:52:29.985Z,3.67
2019-03-03T03:55:30.046Z,3.70
2019-03-03T03:58:32.813Z,2.85
2019-03-03T04:01:33.062Z,3.00
2019-03-03T04:04:33.249Z,3.65
2019-03-03T04:07:46.354Z,3.20
2019-03-03T04:10:43.779Z,3.37
2019-03-03T04:13:51.320Z,2.80
2019-03-03T04:16:46.149Z,2.98
2019-03-03T04:19:53.671Z,3.02
2019-03-03T04:23:01.154Z,3.62
2019-03-03T04:26:08.631Z,5.45
2019-03-03T04:29:14.492Z,3.58
2019-03-03T04:32:21.980Z,3.33
2019-03-03T04:35:21.796Z,3.30
2019-03-03T04:47:48.216Z,3.27
2019-03-03T04:50:45.981Z,3.95
2019-03-03T04:53:53.452Z,3.25
2019-03-03T04:57:00.968Z,2.87
2019-03-03T05:00:08.409Z,4.00
2019-03-03T05:03:15.943Z,3.12
2019-03-03T05:06:23.384Z,3.40
2019-03-03T05:09:30.866Z,3.60
2019-03-03T05:16:05.224Z,3.50
2019-03-03T05:19:02.468Z,4.25
2019-03-03T05:21:51.055Z,4.45
2019-03-03T05:24:39.750Z,3.25
2019-03-03T05:27:28.774Z,3.70
2019-03-03T05:30:17.463Z,4.30
2019-03-03T05:33:06.449Z,3.60
2019-03-03T05:35:47.924Z,4.40
2019-03-03T05:38:28.763Z,4.30
2019-03-03T05:41:10.012Z,3.62
2019-03-03T05:43:49.775Z,3.67
2019-03-03T05:49:47.607Z,3.52
2019-03-03T05:55:45.392Z,3.50
2019-03-03T05:58:34.038Z,3.65
2019-03-03T06:01:23.020Z,4.37
2019-03-03T06:04:11.646Z,3.75
2019-03-03T06:10:08.456Z,4.08
2019-03-03T06:13:11.537Z,3.65
2019-03-03T06:15:47.596Z,3.83
2019-03-03T06:18:36.435Z,3.75
2019-03-03T06:21:39.539Z,3.65
2019-03-03T06:24:16.259Z,3.87
2019-03-03T06:30:28.204Z,3.50
2019-03-03T06:33:04.751Z,3.30
2019-03-03T06:35:46.168Z,4.72
2019-03-03T06:38:27.525Z,4.45
2019-03-03T06:41:09.139Z,4.00
2019-03-03T06:43:50.795Z,3.58
2019-03-03T06:46:32.015Z,4.55
2019-03-03T06:49:12.868Z,3.80
2019-03-03T06:51:53.802Z,3.12
2019-03-03T06:54:34.689Z,3.33
2019-03-03T06:57:15.720Z,4.20
2019-03-03T06:59:57.210Z,3.47
2019-03-03T07:02:38.947Z,4.60
2019-03-03T07:05:20.054Z,4.50
2019-03-03T07:08:01.377Z,3.50
2019-03-03T07:10:42.212Z,4.17
2019-03-03T07:13:23.655Z,4.15
2019-03-03T07:16:05.548Z,4.08
2019-03-03T07:18:47.076Z,4.03
2019-03-03T07:21:27.807Z,3.35
2019-03-03T07:24:09.187Z,3.80
2019-03-03T07:26:50.704Z,3.70
2019-03-03T07:29:32.612Z,3.90
2019-03-03T07:32:14.312Z,4.35
2019-03-03T07:34:55.874Z,4.60
2019-03-03T07:37:35.822Z,3.85
2019-03-03T07:40:24.505Z,3.83
2019-03-03T07:43:13.138Z,4.97
2019-03-03T07:48:57.070Z,3.75
2019-03-03T07:51:45.667Z,3.70
2019-03-03T07:54:34.282Z,3.77
2019-03-03T08:00:17.709Z,3.85
2019-03-03T08:08:57.832Z,4.00
2019-03-03T08:14:40.823Z,3.90
2019-03-03T08:17:29.501Z,4.58
2019-03-03T08:20:18.222Z,3.15
2019-03-03T08:26:02.378Z,3.85
2019-03-03T08:31:46.555Z,5.78
2019-03-03T08:37:29.155Z,4.20
2019-03-03T08:40:18.324Z,4.03
2019-03-03T08:43:25.791Z,3.67
2019-03-03T08:46:33.273Z,4.08
2019-03-03T08:49:27.726Z,4.25
2019-03-03T08:52:35.167Z,5.20
2019-03-03T08:55:43.828Z,3.95
2019-03-03T09:01:55.973Z,3.90
2019-03-03T09:05:03.492Z,3.70
2019-03-03T09:08:10.953Z,3.77
2019-03-03T09:11:18.731Z,4.83
2019-03-03T09:14:26.216Z,5.37
2019-03-03T09:17:33.729Z,4.15
2019-03-03T09:20:41.242Z,4.08
2019-03-03T09:23:48.715Z,3.70
2019-03-03T09:26:56.205Z,4.97
2019-03-03T09:30:03.711Z,3.85
2019-03-03T09:33:11.176Z,4.40
2019-03-03T09:36:11.113Z,3.95
2019-03-03T09:45:20.346Z,3.60
2019-03-03T09:48:20.293Z,3.72
2019-03-03T09:51:37.599Z,2.70
2019-03-03T09:54:25.045Z,2.95
2019-03-03T09:57:14.980Z,3.45
2019-03-03T10:00:15.289Z,3.05
2019-03-03T10:03:15.657Z,3.00
2019-03-03T10:06:18.759Z,2.62
2019-03-03T10:09:18.323Z,2.45
2019-03-03T10:12:04.672Z,2.20
2019-03-03T10:15:03.151Z,2.35
2019-03-03T10:17:56.309Z,2.33
2019-03-03T10:20:45.874Z,2.30
2019-03-03T10:23:46.021Z,2.20
2019-03-03T10:26:46.628Z,2.40
2019-03-03T10:33:12.074Z,1.75
2019-03-03T10:39:40.492Z,2.12
2019-03-03T10:42:47.988Z,1.90
2019-03-03T10:45:55.739Z,1.87
2019-03-03T10:49:03.231Z,1.98
2019-03-03T10:52:10.696Z,4.00
2019-03-03T10:55:18.482Z,3.00
2019-03-03T10:58:25.947Z,2.87
2019-03-03T11:01:33.442Z,2.85
2019-03-03T11:04:41.219Z,4.28
2019-03-03T11:07:48.712Z,5.35
2019-03-03T11:10:57.771Z,4.95
2019-03-03T11:14:05.409Z,5.97
2019-03-03T11:17:00.625Z,1.20
2019-03-03T11:20:08.096Z,2.50
2019-03-03T11:23:15.589Z,1.45
2019-03-03T11:26:23.080Z,1.60
2019-03-03T11:29:23.603Z,1.20
2019-03-03T11:32:24.001Z,1.32
2019-03-03T11:35:23.609Z,1.52
2019-03-03T11:38:39.114Z,1.25
2019-03-03T11:41:34.480Z,1.45
2019-03-03T11:44:41.993Z,1.25
2019-03-03T11:47:41.236Z,1.30
2019-03-03T11:50:48.733Z,0.93
2019-03-03T11:53:56.187Z,1.30
2019-03-03T12:00:09.897Z,1.20
2019-03-03T12:09:53.880Z,1.10
2019-03-03T12:13:01.632Z,1.20
2019-03-03T12:16:09.112Z,0.93
2019-03-03T12:19:16.606Z,1.32
2019-03-03T12:25:38.378Z,1.27
2019-03-03T12:28:50.360Z,0.93
2019-03-03T12:38:05.038Z,1.40
2019-03-03T12:41:12.551Z,1.37
2019-03-03T12:44:19.989Z,1.07
2019-03-03T12:47:27.480Z,1.25
2019-03-03T12:50:35.256Z,1.20
2019-03-03T12:53:42.716Z,1.30
2019-03-03T12:56:50.240Z,1.05
2019-03-03T12:59:43.556Z,0.75
2019-03-03T13:02:51.325Z,0.98
2019-03-03T13:05:59.120Z,1.20
2019-03-03T13:09:06.549Z,0.90
2019-03-03T13:12:14.325Z,1.07
2019-03-03T13:15:08.685Z,3.22
2019-03-03T13:18:16.173Z,1.07
2019-03-03T13:21:24.202Z,1.20
2019-03-03T13:24:33.117Z,0.93
2019-03-03T13:27:28.369Z,1.15
2019-03-03T13:30:28.622Z,0.88
2019-03-03T13:33:29.047Z,1.02
2019-03-03T13:39:36.799Z,0.95
2019-03-03T13:42:43.407Z,0.98
2019-03-03T13:45:24.822Z,1.00
2019-03-03T13:48:06.136Z,1.17
2019-03-03T13:50:47.759Z,1.30
2019-03-03T13:53:29.053Z,0.85
2019-03-03T13:56:10.826Z,1.20
2019-03-03T13:58:52.105Z,1.35
2019-03-03T14:01:33.501Z,0.90
2019-03-03T14:04:14.508Z,1.00
2019-03-03T14:06:55.863Z,0.95
2019-03-03T14:09:36.666Z,1.30
2019-03-03T14:12:18.379Z,1.02
2019-03-03T14:14:59.513Z,1.30
2019-03-03T14:17:40.966Z,1.10
2019-03-03T14:20:21.983Z,0.98
2019-03-03T14:23:02.684Z,0.80
2019-03-03T14:25:44.214Z,0.90
2019-03-03T14:28:25.465Z,0.62
2019-03-03T14:31:06.525Z,0.90
2019-03-03T14:33:47.663Z,0.88
2019-03-03T14:36:28.472Z,0.70
2019-03-03T14:39:10.123Z,1.07
2019-03-03T14:41:51.812Z,1.25
2019-03-03T14:44:33.427Z,0.90
2019-03-03T14:47:14.251Z,0.98
2019-03-03T14:49:55.940Z,1.25
2019-03-03T14:52:37.443Z,0.93
2019-03-03T14:55:19.271Z,1.10
2019-03-03T14:58:00.149Z,1.70
2019-03-03T15:00:41.761Z,1.52
2019-03-03T15:03:21.483Z,1.35
2019-03-03T15:09:38.288Z,1.87
2019-03-03T15:12:26.980Z,1.70
2019-03-03T15:15:15.836Z,1.57
2019-03-03T15:18:04.642Z,1.60
2019-03-03T15:20:53.232Z,1.55
2019-03-03T15:23:41.948Z,1.50
2019-03-03T15:26:30.592Z,1.70
2019-03-03T15:29:19.479Z,1.85
2019-03-03T15:32:22.012Z,1.75
2019-03-03T15:34:58.505Z,1.35
2019-03-03T15:40:46.093Z,1.50
2019-03-03T15:43:34.712Z,1.60
2019-03-03T15:46:23.321Z,8.88
2019-03-03T15:49:11.946Z,4.10
2019-03-03T15:52:14.985Z,2.00
2019-03-03T15:57:51.189Z,2.10
2019-03-03T16:00:40.163Z,2.08
2019-03-03T16:06:17.292Z,2.25
2019-03-03T16:08:58.540Z,2.25
2019-03-03T16:11:39.479Z,2.20
2019-03-03T16:14:20.786Z,1.92
2019-03-03T16:17:00.796Z,2.55
2019-03-03T16:22:57.676Z,4.80
2019-03-03T16:25:35.968Z,4.70
2019-03-03T16:28:36.371Z,5.80
2019-03-03T16:31:14.862Z,7.05
2019-03-03T16:39:57.811Z,3.22
2019-03-03T16:42:46.394Z,1.80
2019-03-03T16:45:35.095Z,2.30
2019-03-03T16:48:23.749Z,2.25
2019-03-03T16:54:11.237Z,2.62
2019-03-03T16:57:13.817Z,2.30
2019-03-03T17:05:33.649Z,3.12
2019-03-03T17:08:15.185Z,2.00
2019-03-03T17:10:54.909Z,2.02
2019-03-03T17:13:43.558Z,2.33
2019-03-03T17:19:40.472Z,1.92
2019-03-03T17:22:17.107Z,2.00
2019-03-03T17:31:20.743Z,3.58
2019-03-03T17:34:13.053Z,2.35
2019-03-03T17:37:00.039Z,3.92
2019-03-03T17:39:48.912Z,3.00
2019-03-03T17:42:37.896Z,4.20
2019-03-03T17:45:26.859Z,3.58
2019-03-03T17:51:11.196Z,2.25
2019-03-03T17:54:13.827Z,2.90
2019-03-03T17:59:49.996Z,2.95
2019-03-03T18:02:38.960Z,3.17
2019-03-03T18:08:36.776Z,9.58
2019-03-03T18:11:25.355Z,3.60
2019-03-03T18:14:14.160Z,3.33
2019-03-03T18:17:03.639Z,3.10
2019-03-03T18:19:52.236Z,3.27
2019-03-03T18:25:55.160Z,4.00
2019-03-03T18:34:45.995Z,3.58
2019-03-03T18:40:20.829Z,4.05
2019-03-03T18:43:09.997Z,4.55
2019-03-03T18:46:12.583Z,3.87
2019-03-03T18:48:49.260Z,4.40
2019-03-03T18:51:50.030Z,3.15
2019-03-03T18:57:16.744Z,4.50
2019-03-03T18:59:58.241Z,4.03
2019-03-03T19:02:39.155Z,3.80
2019-03-03T19:05:19.003Z,4.22
2019-03-03T19:08:07.589Z,3.98
2019-03-03T19:10:56.362Z,4.37
2019-03-03T19:13:45.124Z,4.55
2019-03-03T19:19:56.952Z,4.65
2019-03-03T19:22:33.214Z,4.40
2019-03-03T19:25:35.817Z,4.60
2019-03-03T19:28:12.239Z,4.30
2019-03-03T19:31:01.171Z,4.28
2019-03-03T19:33:51.541Z,4.40
2019-03-03T19:39:49.538Z,4.42
2019-03-03T19:42:38.139Z,3.40
2019-03-03T19:48:55.844Z,3.65
2019-03-03T19:51:32.137Z,4.03
2019-03-03T19:57:09.123Z,3.85
2019-03-03T19:59:50.694Z,5.05
2019-03-03T20:02:32.158Z,4.47
2019-03-03T20:05:11.897Z,5.08
2019-03-03T20:08:00.831Z,4.22
2019-03-03T20:11:01.590Z,3.92
2019-03-03T20:13:40.529Z,4.20
2019-03-03T20:16:41.031Z,5.25
2019-03-03T20:19:19.799Z,5.87
2019-03-03T20:25:02.074Z,4.62
2019-03-03T20:27:50.708Z,4.12
2019-03-03T20:33:34.669Z,4.65
2019-03-03T20:36:23.321Z,4.85
2019-03-03T20:48:32.192Z,4.30
2019-03-03T20:51:20.825Z,4.42
2019-03-03T20:57:11.504Z,4.80
2019-03-03T20:59:52.465Z,5.05
2019-03-03T21:02:33.804Z,4.30
2019-03-03T21:05:15.132Z,4.35
2019-03-03T21:07:56.059Z,4.47
2019-03-03T21:10:37.225Z,3.83
2019-03-03T21:13:18.250Z,3.98
2019-03-03T21:16:00.196Z,3.80
2019-03-03T21:18:41.236Z,4.78
2019-03-03T21:21:22.449Z,4.60
2019-03-03T21:24:04.025Z,4.15
2019-03-03T21:26:43.683Z,4.03
2019-03-03T21:29:32.323Z,3.75
2019-03-03T21:32:35.076Z,4.35
2019-03-03T21:38:20.949Z,4.05
2019-03-03T21:41:09.669Z,3.42
2019-03-03T21:43:58.288Z,4.00
2019-03-03T21:46:47.207Z,3.80
2019-03-03T21:49:37.230Z,3.50
2019-03-03T21:52:26.161Z,3.47
2019-03-03T21:55:07.656Z,3.80
2019-03-03T21:57:49.268Z,3.50
2019-03-03T22:00:29.745Z,3.80
2019-03-03T22:03:18.833Z,3.22
2019-03-03T22:09:16.624Z,3.05
2019-03-03T22:15:00.559Z,2.90
2019-03-03T22:18:03.550Z,3.58
2019-03-03T22:20:39.937Z,3.25
2019-03-03T22:32:13.009Z,2.50
2019-03-03T22:35:01.650Z,2.83
2019-03-03T22:41:05.033Z,3.27
2019-03-03T22:43:54.283Z,2.70
2019-03-03T22:46:42.877Z,3.27
2019-03-03T22:49:31.810Z,2.55
2019-03-03T22:55:22.628Z,3.05
2019-03-03T22:58:03.898Z,2.85
2019-03-03T23:00:49.379Z,3.20
2019-03-03T23:03:30.255Z,2.70
2019-03-03T23:06:11.631Z,3.25
2019-03-03T23:08:53.231Z,3.60
2019-03-03T23:11:34.537Z,3.60
2019-03-03T23:14:35.275Z,3.00
2019-03-03T23:17:42.862Z,2.90
2019-03-03T23:20:50.506Z,2.80
2019-03-03T23:23:58.364Z,3.00
2019-03-03T23:27:01.409Z,3.02
2019-03-03T23:29:37.705Z,2.72
2019-03-03T23:32:33.300Z,3.40
2019-03-03T23:35:22.023Z,3.00
2019-03-03T23:38:10.930Z,3.02
2019-03-03T23:41:14.472Z,2.95
2019-03-03T23:49:39.520Z,2.50
2019-03-03T23:52:28.291Z,2.62
2019-03-03T23:55:09.572Z,2.50
2019-03-03T23:57:51.358Z,2.85
